createdAt,value
2017-12-20T00:02:20.339Z,97006.94
2017-12-20T00:04:49.395Z,97010.75
2017-12-20T00:07:23.562Z,97004.25
2017-12-20T00:09:52.593Z,97001.26
2017-12-20T00:12:25.225Z,96997.72
2017-12-20T00:14:54.290Z,96989.87
2017-12-20T00:17:23.336Z,96986.27
2017-12-20T00:19:52.436Z,96990.61
2017-12-20T00:22:36.426Z,96998.09
2017-12-20T00:25:05.467Z,96999.21
2017-12-20T00:27:40.309Z,96996.59
2017-12-20T00:30:10.242Z,96995.23
2017-12-20T00:35:17.714Z,96979.73
2017-12-20T00:37:46.770Z,96980.81
2017-12-20T00:40:37.909Z,96981.73
2017-12-20T00:43:14.999Z,96985.38
2017-12-20T00:45:45.052Z,96987.06
2017-12-20T00:48:21.586Z,96988.70
2017-12-20T00:50:50.737Z,96988.48
2017-12-20T00:53:23.163Z,96988.31
2017-12-20T00:55:52.227Z,96989.11
2017-12-20T00:58:22.292Z,96985.97
2017-12-20T01:00:51.331Z,96988.47
2017-12-20T01:03:27.743Z,96978.88
2017-12-20T01:05:56.786Z,96975.70
2017-12-20T01:08:27.790Z,96978.51
2017-12-20T01:10:56.860Z,96978.03
2017-12-20T01:13:26.808Z,96970.14
2017-12-20T01:15:56.969Z,96974.41
2017-12-20T01:18:26.026Z,96972.64
2017-12-20T01:20:56.944Z,96975.95
2017-12-20T01:23:25.991Z,96975.73
2017-12-20T01:25:58.852Z,96978.67
2017-12-20T01:28:27.927Z,96976.18
2017-12-20T01:33:32.230Z,96975.96
2017-12-20T01:36:02.311Z,96971.88
2017-12-20T01:38:31.385Z,96974.47
2017-12-20T01:43:52.550Z,96976.83
2017-12-20T01:46:22.581Z,96979.05
2017-12-20T01:48:51.630Z,96975.14
2017-12-20T01:51:20.661Z,96982.52
2017-12-20T01:53:53.350Z,96980.27
2017-12-20T01:56:27.238Z,96980.52
2017-12-20T01:58:56.302Z,96977.79
2017-12-20T02:01:25.355Z,96978.27
2017-12-20T02:03:58.358Z,96975.91
2017-12-20T02:06:27.423Z,96974.08
2017-12-20T02:08:56.459Z,96976.50
2017-12-20T02:11:26.453Z,96976.17
2017-12-20T02:13:57.497Z,96975.02
2017-12-20T02:16:28.575Z,96965.67
2017-12-20T02:18:59.586Z,96968.72
2017-12-20T02:21:28.648Z,96969.02
2017-12-20T02:23:59.626Z,96974.74
2017-12-20T02:26:30.987Z,96970.53
2017-12-20T02:29:00.032Z,96970.13
2017-12-20T02:31:34.913Z,96966.56
2017-12-20T02:34:04.040Z,96965.17
2017-12-20T02:36:34.129Z,96974.98
2017-12-20T02:39:06.968Z,96978.68
2017-12-20T02:44:12.031Z,96968.35
2017-12-20T02:46:41.098Z,96971.59
2017-12-20T02:49:11.081Z,96973.53
2017-12-20T02:51:40.129Z,96976.97
2017-12-20T02:54:09.173Z,96978.78
2017-12-20T02:56:38.245Z,96970.72
2017-12-20T02:59:08.256Z,96965.61
2017-12-20T03:01:37.297Z,96964.16
2017-12-20T03:04:06.358Z,96965.20
2017-12-20T03:06:35.403Z,96965.40
2017-12-20T03:09:06.418Z,96961.56
2017-12-20T03:11:35.467Z,96960.45
2017-12-20T03:14:05.478Z,96954.40
2017-12-20T03:16:34.604Z,96955.80
2017-12-20T03:21:39.368Z,96953.80
2017-12-20T03:24:08.418Z,96948.47
2017-12-20T03:26:37.458Z,96955.55
2017-12-20T03:29:07.434Z,96962.02
2017-12-20T03:31:36.487Z,96952.84
2017-12-20T03:34:06.418Z,96954.27
2017-12-20T03:36:35.462Z,96957.50
2017-12-20T03:39:04.505Z,96957.09
2017-12-20T03:41:33.555Z,96956.58
2017-12-20T03:46:43.762Z,96953.36
2017-12-20T03:49:12.823Z,96954.27
2017-12-20T03:51:41.887Z,96946.20
2017-12-20T03:54:12.862Z,96956.18
2017-12-20T03:56:41.904Z,96953.03
2017-12-20T03:59:11.862Z,96950.55
2017-12-20T04:01:40.893Z,96949.88
2017-12-20T04:04:09.934Z,96949.06
2017-12-20T04:06:38.982Z,96953.88
2017-12-20T04:09:08.029Z,96952.44
2017-12-20T04:14:12.356Z,96952.70
2017-12-20T04:16:42.354Z,96953.81
2017-12-20T04:19:13.384Z,96964.73
2017-12-20T04:21:43.399Z,96959.63
2017-12-20T04:24:13.426Z,96956.94
2017-12-20T04:26:42.568Z,96962.02
2017-12-20T04:29:11.626Z,96962.31
2017-12-20T04:31:44.922Z,96963.68
2017-12-20T04:34:13.946Z,96962.66
2017-12-20T04:36:43.972Z,96962.98
2017-12-20T04:39:13.026Z,96967.05
2017-12-20T04:41:42.079Z,96959.23
2017-12-20T04:46:46.473Z,96961.92
2017-12-20T04:49:15.502Z,96962.27
2017-12-20T04:51:44.545Z,96966.05
2017-12-20T04:54:13.767Z,96962.34
2017-12-20T04:56:50.867Z,96969.45
2017-12-20T05:01:57.099Z,96980.34
2017-12-20T05:04:27.063Z,96974.23
2017-12-20T05:06:56.095Z,96978.23
2017-12-20T05:09:26.039Z,96975.13
2017-12-20T05:11:55.082Z,96979.27
2017-12-20T05:14:25.094Z,96973.21
2017-12-20T05:16:54.190Z,96971.72
2017-12-20T05:19:23.230Z,96972.12
2017-12-20T05:21:52.287Z,96975.87
2017-12-20T05:24:21.357Z,96978.36
2017-12-20T05:26:50.406Z,96982.48
2017-12-20T05:29:19.452Z,96978.80
2017-12-20T05:31:51.997Z,96981.50
2017-12-20T05:36:56.507Z,96988.55
2017-12-20T05:39:25.539Z,96986.91
2017-12-20T05:41:54.589Z,96985.95
2017-12-20T05:47:00.779Z,96998.89
2017-12-20T05:49:29.810Z,96995.05
2017-12-20T05:51:58.866Z,96992.86
2017-12-20T05:54:29.828Z,96993.95
2017-12-20T05:56:58.853Z,96996.27
2017-12-20T05:59:29.867Z,96995.52
2017-12-20T06:01:58.930Z,96995.09
2017-12-20T06:04:28.877Z,96990.56
2017-12-20T06:06:57.966Z,96995.72
2017-12-20T06:09:26.966Z,96995.09
2017-12-20T06:11:56.011Z,96990.80
2017-12-20T06:14:25.090Z,96993.62
2017-12-20T06:16:54.176Z,96996.30
2017-12-20T06:19:23.223Z,96993.46
2017-12-20T06:21:53.202Z,96996.02
2017-12-20T06:24:22.256Z,97001.99
2017-12-20T06:26:52.234Z,97005.14
2017-12-20T06:29:21.285Z,96997.45
2017-12-20T06:31:50.319Z,97004.46
2017-12-20T06:34:19.367Z,97006.45
2017-12-20T06:36:51.472Z,97003.31
2017-12-20T06:39:21.417Z,97005.80
2017-12-20T06:41:56.442Z,97010.16
2017-12-20T06:44:25.479Z,97013.34
2017-12-20T06:46:58.253Z,97008.50
2017-12-20T06:49:27.306Z,97015.25
2017-12-20T06:52:09.914Z,97015.20
2017-12-20T06:57:15.106Z,97014.12
2017-12-20T06:59:46.122Z,97016.30
2017-12-20T07:04:57.562Z,97008.27
2017-12-20T07:07:30.229Z,97004.86
2017-12-20T07:10:16.967Z,97009.89
2017-12-20T07:12:45.986Z,97006.75
2017-12-20T07:15:33.890Z,97011.37
2017-12-20T07:20:39.149Z,97012.17
2017-12-20T07:23:09.115Z,97012.98
2017-12-20T07:28:16.098Z,97009.44
2017-12-20T07:30:45.135Z,97009.39
2017-12-20T07:33:14.173Z,97015.02
2017-12-20T07:38:35.474Z,97021.77
2017-12-20T07:41:05.408Z,97023.56
2017-12-20T07:46:09.639Z,97031.17
2017-12-20T07:48:48.416Z,97037.08
2017-12-20T07:51:17.501Z,97031.92
2017-12-20T07:53:46.509Z,97040.19
2017-12-20T07:56:15.546Z,97040.70
2017-12-20T07:59:01.871Z,97043.25
2017-12-20T08:01:32.844Z,97039.05
2017-12-20T08:04:01.902Z,97041.06
2017-12-20T08:09:10.094Z,97046.50
2017-12-20T08:11:58.677Z,97045.91
2017-12-20T08:17:06.946Z,97044.86
2017-12-20T08:19:44.715Z,97045.04
2017-12-20T08:22:16.674Z,97043.33
2017-12-20T08:24:49.462Z,97048.75
2017-12-20T08:27:19.614Z,97046.63
2017-12-20T08:30:01.031Z,97045.84
2017-12-20T08:35:11.283Z,97049.33
2017-12-20T08:40:18.666Z,97052.86
2017-12-20T08:42:57.855Z,97052.10
2017-12-20T08:45:44.891Z,97054.00
2017-12-20T08:48:13.951Z,97053.38
2017-12-20T08:50:48.046Z,97055.58
2017-12-20T08:53:17.112Z,97058.78
2017-12-20T08:55:47.156Z,97057.39
2017-12-20T08:58:16.203Z,97062.69
2017-12-20T09:00:53.625Z,97056.46
2017-12-20T09:03:22.659Z,97063.29
2017-12-20T09:05:51.696Z,97066.13
2017-12-20T09:08:24.326Z,97072.35
2017-12-20T09:10:55.357Z,97073.06
2017-12-20T09:13:24.406Z,97075.74
2017-12-20T09:16:00.831Z,97073.24
2017-12-20T09:18:41.818Z,97077.58
2017-12-20T09:21:10.850Z,97076.39
2017-12-20T09:26:19.113Z,97084.20
2017-12-20T09:28:49.147Z,97088.53
2017-12-20T09:31:18.190Z,97088.87
2017-12-20T09:34:01.656Z,97087.61
2017-12-20T09:36:30.696Z,97089.84
2017-12-20T09:39:00.642Z,97094.42
2017-12-20T09:41:31.635Z,97088.52
2017-12-20T09:44:00.729Z,97082.16
2017-12-20T09:46:37.466Z,97079.41
2017-12-20T09:49:07.430Z,97082.84
2017-12-20T09:54:11.723Z,97076.45
2017-12-20T09:56:52.960Z,97070.56
2017-12-20T09:59:23.983Z,97076.48
2017-12-20T10:01:53.024Z,97077.07
2017-12-20T10:04:25.794Z,97075.83
2017-12-20T10:07:00.557Z,97078.75
2017-12-20T10:09:29.592Z,97073.52
2017-12-20T10:11:58.639Z,97078.61
2017-12-20T10:19:51.650Z,97070.04
2017-12-20T10:22:22.591Z,97070.69
2017-12-20T10:24:55.553Z,97068.98
2017-12-20T10:27:56.224Z,97066.44
2017-12-20T10:31:00.401Z,97075.45
2017-12-20T10:36:04.831Z,97055.72
2017-12-20T10:38:38.550Z,97052.52
2017-12-20T10:41:07.606Z,97053.18
2017-12-20T10:43:50.846Z,97049.30
2017-12-20T10:46:19.947Z,97046.47
2017-12-20T10:49:00.726Z,97044.41
2017-12-20T10:51:54.154Z,97037.03
2017-12-20T10:54:30.220Z,97041.05
2017-12-20T10:56:59.257Z,97036.81
2017-12-20T11:02:11.433Z,97032.95
2017-12-20T11:04:40.445Z,97035.38
2017-12-20T11:07:29.010Z,97031.37
2017-12-20T11:09:58.049Z,97028.75
2017-12-20T11:12:31.966Z,97026.21
2017-12-20T11:15:04.784Z,97026.48
2017-12-20T11:17:33.870Z,97028.03
2017-12-20T11:22:43.120Z,97031.96
2017-12-20T11:25:29.633Z,97026.00
2017-12-20T11:27:58.689Z,97024.84
2017-12-20T11:30:27.725Z,97023.30
2017-12-20T11:33:00.553Z,97023.66
2017-12-20T11:35:30.898Z,97018.77
2017-12-20T11:37:59.980Z,97019.06
2017-12-20T11:40:29.020Z,97020.81
2017-12-20T11:42:58.996Z,97016.11
2017-12-20T11:48:03.475Z,97013.02
2017-12-20T11:50:32.497Z,97012.85
2017-12-20T11:53:09.419Z,97018.50
2017-12-20T11:55:39.042Z,97012.12
2017-12-20T11:58:08.108Z,97016.27
2017-12-20T12:00:37.979Z,97014.53
2017-12-20T12:03:07.011Z,97017.58
2017-12-20T12:05:37.095Z,97018.21
2017-12-20T12:08:06.137Z,97017.67
2017-12-20T12:10:35.716Z,97017.82
2017-12-20T12:13:04.852Z,97019.11
2017-12-20T12:15:33.910Z,97014.89
2017-12-20T12:18:08.805Z,97018.91
2017-12-20T12:20:37.967Z,97021.16
2017-12-20T12:23:17.032Z,97014.31
2017-12-20T12:25:46.093Z,97012.20
2017-12-20T12:28:15.132Z,97011.12
2017-12-20T12:30:44.162Z,97009.69
2017-12-20T12:33:17.740Z,97006.28
2017-12-20T12:35:46.793Z,97005.81
2017-12-20T12:38:15.818Z,97005.45
2017-12-20T12:40:44.977Z,97002.34
2017-12-20T12:43:17.331Z,96994.23
2017-12-20T12:45:47.260Z,96994.16
2017-12-20T12:48:29.713Z,96994.84
2017-12-20T12:53:34.090Z,96989.06
2017-12-20T12:56:16.836Z,96992.70
2017-12-20T12:58:45.856Z,96985.18
2017-12-20T13:01:20.385Z,96986.59
2017-12-20T13:03:49.417Z,96987.95
2017-12-20T13:06:18.452Z,96983.89
2017-12-20T13:08:47.479Z,96983.34
2017-12-20T13:11:16.541Z,96985.35
2017-12-20T13:13:45.566Z,96982.41
2017-12-20T13:18:59.801Z,96977.54
2017-12-20T13:21:32.611Z,96982.09
2017-12-20T13:24:12.701Z,96978.41
2017-12-20T13:26:42.712Z,96981.49
2017-12-20T13:31:46.989Z,96985.70
2017-12-20T13:34:31.666Z,96986.69
2017-12-20T13:37:04.010Z,96993.41
2017-12-20T13:39:33.045Z,96992.69
2017-12-20T13:42:02.074Z,96991.67
2017-12-20T13:44:31.098Z,96994.64
2017-12-20T13:47:01.133Z,96995.35
2017-12-20T13:49:32.153Z,96995.83
2017-12-20T13:52:06.072Z,96994.20
2017-12-20T13:54:35.158Z,96998.18
2017-12-20T13:59:41.099Z,97000.63
2017-12-20T14:02:31.562Z,97002.00
2017-12-20T14:07:35.823Z,97002.23
2017-12-20T14:10:10.366Z,97000.78
2017-12-20T14:12:39.531Z,97001.66
2017-12-20T14:15:08.590Z,97004.16
2017-12-20T14:17:37.616Z,97007.87
2017-12-20T14:20:28.133Z,97011.98
2017-12-20T14:22:57.178Z,97013.61
2017-12-20T14:25:33.945Z,97018.38
2017-12-20T14:30:38.947Z,97014.09
2017-12-20T14:33:07.986Z,97018.60
2017-12-20T14:35:37.976Z,97024.35
2017-12-20T14:40:51.208Z,97022.99
2017-12-20T14:43:21.174Z,97027.13
2017-12-20T14:45:54.883Z,97024.72
2017-12-20T14:48:27.842Z,97022.97
2017-12-20T14:50:57.028Z,97024.40
2017-12-20T14:53:54.149Z,97023.27
2017-12-20T14:56:26.665Z,97026.88
2017-12-20T14:58:55.745Z,97024.48
2017-12-20T15:01:40.209Z,97021.22
2017-12-20T15:04:09.230Z,97026.42
2017-12-20T15:06:40.378Z,97031.34
2017-12-20T15:09:09.403Z,97031.99
2017-12-20T15:11:42.048Z,97033.53
2017-12-20T15:14:11.107Z,97038.55
2017-12-20T15:16:43.682Z,97036.87
2017-12-20T15:19:12.722Z,97036.37
2017-12-20T15:21:43.768Z,97044.88
2017-12-20T15:24:12.793Z,97035.20
2017-12-20T15:26:47.217Z,97036.11
2017-12-20T15:29:36.967Z,97042.73
2017-12-20T15:32:05.986Z,97044.41
2017-12-20T15:34:39.981Z,97049.70
2017-12-20T15:37:09.016Z,97051.87
2017-12-20T15:39:38.589Z,97052.17
2017-12-20T15:42:07.631Z,97055.84
2017-12-20T15:44:40.034Z,97052.56
2017-12-20T15:47:09.102Z,97053.76
2017-12-20T15:49:45.754Z,97054.41
2017-12-20T15:54:54.916Z,97058.67
2017-12-20T15:57:24.013Z,97063.48
2017-12-20T15:59:55.033Z,97065.01
2017-12-20T16:02:24.984Z,97059.63
2017-12-20T16:04:54.920Z,97062.41
2017-12-20T16:07:24.147Z,97059.93
2017-12-20T16:09:53.192Z,97063.00
2017-12-20T16:12:29.923Z,97061.30
2017-12-20T16:14:59.633Z,97057.95
2017-12-20T16:17:54.537Z,97061.13
2017-12-20T16:23:05.775Z,97063.64
2017-12-20T16:25:34.815Z,97066.01
2017-12-20T16:28:19.608Z,97072.16
2017-12-20T16:30:50.610Z,97074.50
2017-12-20T16:33:21.922Z,97079.42
2017-12-20T16:36:05.926Z,97077.56
2017-12-20T16:38:34.954Z,97082.39
2017-12-20T16:41:18.127Z,97080.71
2017-12-20T16:43:52.635Z,97081.81
2017-12-20T16:46:21.710Z,97080.09
2017-12-20T16:49:09.960Z,97084.81
2017-12-20T16:51:42.295Z,97087.00
2017-12-20T16:54:19.152Z,97086.30
2017-12-20T16:56:49.959Z,97084.35
2017-12-20T16:59:19.897Z,97084.16
2017-12-20T17:04:24.180Z,97086.83
2017-12-20T17:09:39.408Z,97093.95
2017-12-20T17:12:10.446Z,97099.45
2017-12-20T17:14:50.838Z,97104.44
2017-12-20T17:17:19.886Z,97103.53
2017-12-20T17:19:50.823Z,97103.28
2017-12-20T17:22:20.002Z,97108.88
2017-12-20T17:24:50.965Z,97118.55
2017-12-20T17:27:20.008Z,97121.60
2017-12-20T17:30:00.234Z,97127.09
2017-12-20T17:32:29.314Z,97128.02
2017-12-20T17:35:11.057Z,97128.91
2017-12-20T17:37:41.168Z,97132.78
2017-12-20T17:42:46.109Z,97137.72
2017-12-20T17:47:50.294Z,97138.52
2017-12-20T17:52:57.533Z,97147.64
2017-12-20T17:58:18.605Z,97148.80
2017-12-20T18:00:47.646Z,97150.77
2017-12-20T18:03:20.408Z,97152.13
2017-12-20T18:05:50.112Z,97151.63
2017-12-20T18:08:24.539Z,97151.91
2017-12-20T18:10:53.547Z,97156.25
2017-12-20T18:13:35.507Z,97152.77
2017-12-20T18:18:46.934Z,97151.78
2017-12-20T18:23:52.169Z,97153.79
2017-12-20T18:29:01.346Z,97160.81
2017-12-20T18:34:35.331Z,97163.86
2017-12-20T18:39:43.456Z,97169.02
2017-12-20T18:42:13.482Z,97172.30
2017-12-20T18:44:42.517Z,97176.13
2017-12-20T18:47:18.971Z,97180.25
2017-12-20T18:49:48.019Z,97181.22
2017-12-20T18:52:17.046Z,97180.87
2017-12-20T18:54:46.119Z,97184.81
2017-12-20T18:57:25.980Z,97188.68
2017-12-20T18:59:55.022Z,97190.65
2017-12-20T19:02:25.025Z,97194.03
2017-12-20T19:04:54.060Z,97193.26
2017-12-20T19:07:23.130Z,97186.73
2017-12-20T19:09:52.171Z,97188.02
2017-12-20T19:12:21.255Z,97188.52
2017-12-20T19:17:27.690Z,97183.67
2017-12-20T19:20:00.436Z,97174.39
2017-12-20T19:22:29.612Z,97168.12
2017-12-20T19:24:58.691Z,97166.02
2017-12-20T19:27:27.879Z,97169.39
2017-12-20T19:29:57.484Z,97172.81
2017-12-20T19:32:26.597Z,97166.54
2017-12-20T19:34:55.833Z,97164.39
2017-12-20T19:37:25.168Z,97169.20
2017-12-20T19:39:54.962Z,97170.89
2017-12-20T19:44:59.322Z,97166.14
2017-12-20T19:47:30.435Z,97165.62
2017-12-20T19:50:00.699Z,97163.24
2017-12-20T19:52:32.086Z,97160.76
2017-12-20T19:55:01.289Z,97161.27
2017-12-20T20:00:09.422Z,97160.45
2017-12-20T20:02:41.609Z,97161.61
2017-12-20T20:05:14.266Z,97162.10
2017-12-20T20:07:43.447Z,97169.93
2017-12-20T20:10:12.615Z,97176.38
2017-12-20T20:12:41.665Z,97177.47
2017-12-20T20:15:10.786Z,97178.02
2017-12-20T20:20:18.766Z,97188.48
2017-12-20T20:22:47.898Z,97189.84
2017-12-20T20:25:16.943Z,97180.59
2017-12-20T20:27:46.071Z,97181.91
2017-12-20T20:30:15.206Z,97186.45
2017-12-20T20:32:45.150Z,97189.69
2017-12-20T20:35:14.223Z,97189.91
2017-12-20T20:37:43.522Z,97188.67
2017-12-20T20:40:17.158Z,97184.30
2017-12-20T20:42:48.294Z,97184.94
2017-12-20T20:45:20.424Z,97183.14
2017-12-20T20:50:24.697Z,97184.81
2017-12-20T20:52:55.722Z,97188.22
2017-12-20T20:55:26.051Z,97186.73
2017-12-20T20:57:57.136Z,97182.90
2017-12-20T21:00:26.393Z,97182.03
2017-12-20T21:02:55.585Z,97175.53
2017-12-20T21:05:24.785Z,97180.14
2017-12-20T21:07:54.846Z,97180.60
2017-12-20T21:10:25.845Z,97180.23
2017-12-20T21:13:08.656Z,97180.84
2017-12-20T21:15:37.849Z,97186.25
2017-12-20T21:18:14.957Z,97183.22
2017-12-20T21:20:44.042Z,97185.78
2017-12-20T21:25:48.477Z,97188.08
2017-12-20T21:28:17.533Z,97188.91
2017-12-20T21:30:46.586Z,97195.23
2017-12-20T21:36:00.331Z,97194.52
2017-12-20T21:38:29.391Z,97190.14
2017-12-20T21:40:59.322Z,97190.42
2017-12-20T21:43:28.391Z,97193.34
2017-12-20T21:45:57.439Z,97197.83
2017-12-20T21:48:27.351Z,97192.84
2017-12-20T21:50:56.491Z,97198.56
2017-12-20T21:53:25.528Z,97201.19
2017-12-20T21:55:59.023Z,97203.22
2017-12-20T21:58:31.353Z,97202.98
2017-12-20T22:03:43.350Z,97204.97
2017-12-20T22:06:14.335Z,97208.16
2017-12-20T22:08:43.403Z,97209.84
2017-12-20T22:11:12.450Z,97214.53
2017-12-20T22:13:41.499Z,97214.91
2017-12-20T22:16:10.551Z,97216.23
2017-12-20T22:18:44.270Z,97215.82
2017-12-20T22:21:13.310Z,97219.22
2017-12-20T22:23:42.351Z,97220.09
2017-12-20T22:26:16.048Z,97222.66
2017-12-20T22:28:47.052Z,97220.50
2017-12-20T22:31:16.121Z,97214.14
2017-12-20T22:33:45.185Z,97219.31
2017-12-20T22:36:14.264Z,97218.28
2017-12-20T22:41:24.580Z,97217.89
2017-12-20T22:43:53.636Z,97216.53
2017-12-20T22:46:22.649Z,97220.17
2017-12-20T22:48:59.098Z,97220.75
2017-12-20T22:51:28.130Z,97215.25
2017-12-20T22:54:01.076Z,97216.86
2017-12-20T23:01:42.576Z,97222.61
2017-12-20T23:04:11.586Z,97219.23
2017-12-20T23:06:42.561Z,97221.66
2017-12-20T23:09:11.622Z,97210.62
2017-12-20T23:11:48.191Z,97205.52
2017-12-20T23:14:17.233Z,97203.44
2017-12-20T23:16:46.266Z,97197.89
2017-12-20T23:19:15.311Z,97203.03
2017-12-20T23:21:45.301Z,97209.05
2017-12-20T23:24:14.341Z,97206.84
2017-12-20T23:26:49.135Z,97204.02
2017-12-20T23:29:20.398Z,97207.23
2017-12-20T23:31:50.398Z,97208.84
2017-12-20T23:34:19.434Z,97207.52
2017-12-20T23:37:06.298Z,97205.28
2017-12-20T23:39:35.343Z,97208.33
2017-12-20T23:42:10.221Z,97202.59
2017-12-20T23:44:39.268Z,97206.11
2017-12-20T23:47:09.292Z,97204.48
2017-12-20T23:49:38.317Z,97191.91
2017-12-20T23:52:10.526Z,97188.35
2017-12-20T23:54:39.575Z,97190.66
2017-12-20T23:59:45.856Z,97183.38
